This is the latest recevied weather packets stored in our database for station/object KD2RHT-13. If no packets are shown the sender has not sent any weather packets the latest 10 day(s).
| Time | Temp. | Humidity | Pressure | Rain* | Wind** | Luminosity | Snow |
|---|---|---|---|---|---|---|---|
| 1777813807 | 7.78° C | 67% | 1015.6 hPa | 0 mm | - | 446 W/m² | - |
| 1777813504 | 8.33° C | 65% | 1015.6 hPa | 0 mm | - | 431 W/m² | - |
| 1777813202 | 7.78° C | 70% | 1015.9 hPa | 0 mm | - | 393 W/m² | - |
| 1777812900 | 7.78° C | 73% | 1015.6 hPa | 0 mm | - | 374 W/m² | - |
| 1777812596 | 7.22° C | 74% | 1015.6 hPa | 0 mm | - | 361 W/m² | - |
| 1777812293 | 7.22° C | 75% | 1015.6 hPa | 0 mm | - | 341 W/m² | - |
| 1777811991 | 7.22° C | 75% | 1015.6 hPa | 0 mm | - | 325 W/m² | - |
| 1777811690 | 7.22° C | 75% | 1015.6 hPa | 0 mm | - | 310 W/m² | - |
| 1777811385 | 7.22° C | 76% | 1015.6 hPa | 0 mm | - | 292 W/m² | - |
| 1777811083 | 7.22° C | 76% | 1015.6 hPa | 0 mm | - | 285 W/m² | - |
| 1777810780 | 7.22° C | 76% | 1015.6 hPa | 0 mm | - | 261 W/m² | - |
| 1777810477 | 6.67° C | 78% | 1015.6 hPa | 0 mm | - | 253 W/m² | - |
| 1777810173 | 6.67° C | 79% | 1015.6 hPa | 0 mm | - | 233 W/m² | - |
| 1777809870 | 6.11° C | 79% | 1015.9 hPa | 0 mm | - | 227 W/m² | - |
| 1777809568 | 6.11° C | 80% | 1015.9 hPa | 0 mm | - | 217 W/m² | - |
| 1777809265 | 6.11° C | 80% | 1015.6 hPa | 0 mm | - | 188 W/m² | - |
| 1777808963 | 6.11° C | 80% | 1015.2 hPa | 0 mm | - | 182 W/m² | - |
| 1777808660 | 5.56° C | 81% | 1015.6 hPa | 0 mm | - | 159 W/m² | - |
| 1777808356 | 5.56° C | 82% | 1015.2 hPa | 0 mm | - | 147 W/m² | - |
| 1777808055 | 5.56° C | 81% | 1015.6 hPa | 0 mm | - | 129 W/m² | - |
| 1777807752 | 5.56° C | 83% | 1015.6 hPa | 0 mm | - | 121 W/m² | - |
| 1777807450 | 5.56° C | 83% | 1015.2 hPa | 0 mm | - | 109 W/m² | - |
| 1777807145 | 5.56° C | 85% | 1015.2 hPa | 0 mm | - | 94 W/m² | - |
| 1777806843 | 5° C | 86% | 1015.6 hPa | 0 mm | - | 84 W/m² | - |
| 1777806539 | 4.44° C | 90% | 1015.2 hPa | 0 mm | - | 74 W/m² | - |
* Rain latest hour (hover to see other rain measurements)
** Current wind speed in m/s (hover to see current wind gust speed)